sensor_id;sensor_type;location;lat;lon;timestamp;P1;durP1;ratioP1;P2;durP2;ratioP2
42186;SDS011;27858;51.414;0.018;2023-05-07T00:00:34;6.28;;;3.00;;
42186;SDS011;27858;51.414;0.018;2023-05-07T00:03:01;4.38;;;2.50;;
42186;SDS011;27858;51.414;0.018;2023-05-07T00:05:28;3.42;;;2.33;;
42186;SDS011;27858;51.414;0.018;2023-05-07T00:07:55;3.25;;;2.30;;
42186;SDS011;27858;51.414;0.018;2023-05-07T00:10:25;4.65;;;2.22;;
42186;SDS011;27858;51.414;0.018;2023-05-07T00:12:52;3.92;;;1.80;;
42186;SDS011;27858;51.414;0.018;2023-05-07T00:15:19;3.22;;;2.15;;
42186;SDS011;27858;51.414;0.018;2023-05-07T00:17:46;3.22;;;2.28;;
42186;SDS011;27858;51.414;0.018;2023-05-07T00:20:12;2.00;;;1.80;;
42186;SDS011;27858;51.414;0.018;2023-05-07T00:22:39;3.33;;;1.77;;
42186;SDS011;27858;51.414;0.018;2023-05-07T00:25:06;4.72;;;1.83;;
42186;SDS011;27858;51.414;0.018;2023-05-07T00:27:33;3.35;;;2.35;;
42186;SDS011;27858;51.414;0.018;2023-05-07T00:30:00;2.58;;;1.42;;
42186;SDS011;27858;51.414;0.018;2023-05-07T00:32:27;2.38;;;2.05;;
42186;SDS011;27858;51.414;0.018;2023-05-07T00:34:54;3.70;;;1.83;;
42186;SDS011;27858;51.414;0.018;2023-05-07T00:37:21;3.47;;;2.25;;
42186;SDS011;27858;51.414;0.018;2023-05-07T00:39:48;1.92;;;1.70;;
42186;SDS011;27858;51.414;0.018;2023-05-07T00:42:15;4.63;;;2.00;;
42186;SDS011;27858;51.414;0.018;2023-05-07T00:44:42;5.10;;;1.55;;
42186;SDS011;27858;51.414;0.018;2023-05-07T00:47:09;2.58;;;1.52;;
42186;SDS011;27858;51.414;0.018;2023-05-07T00:49:41;2.85;;;1.65;;
42186;SDS011;27858;51.414;0.018;2023-05-07T00:52:13;2.42;;;1.95;;
42186;SDS011;27858;51.414;0.018;2023-05-07T00:54:42;2.83;;;1.63;;
42186;SDS011;27858;51.414;0.018;2023-05-07T00:57:09;3.90;;;1.60;;
42186;SDS011;27858;51.414;0.018;2023-05-07T00:59:37;2.72;;;1.75;;
42186;SDS011;27858;51.414;0.018;2023-05-07T01:02:06;4.53;;;1.40;;
42186;SDS011;27858;51.414;0.018;2023-05-07T01:04:32;3.90;;;1.85;;
42186;SDS011;27858;51.414;0.018;2023-05-07T01:07:00;3.10;;;1.90;;
42186;SDS011;27858;51.414;0.018;2023-05-07T01:09:28;2.75;;;1.30;;
42186;SDS011;27858;51.414;0.018;2023-05-07T01:11:56;3.08;;;1.70;;
42186;SDS011;27858;51.414;0.018;2023-05-07T01:14:23;2.97;;;1.70;;
42186;SDS011;27858;51.414;0.018;2023-05-07T01:16:51;1.75;;;1.10;;
42186;SDS011;27858;51.414;0.018;2023-05-07T01:19:19;1.95;;;1.30;;
42186;SDS011;27858;51.414;0.018;2023-05-07T01:21:47;2.35;;;1.55;;
42186;SDS011;27858;51.414;0.018;2023-05-07T01:24:15;1.75;;;1.45;;
42186;SDS011;27858;51.414;0.018;2023-05-07T01:26:42;1.42;;;1.33;;
42186;SDS011;27858;51.414;0.018;2023-05-07T01:29:10;4.22;;;1.33;;
42186;SDS011;27858;51.414;0.018;2023-05-07T01:31:37;1.70;;;1.42;;
42186;SDS011;27858;51.414;0.018;2023-05-07T01:34:06;1.63;;;1.02;;
42186;SDS011;27858;51.414;0.018;2023-05-07T01:36:36;1.30;;;1.20;;
42186;SDS011;27858;51.414;0.018;2023-05-07T01:39:05;1.88;;;1.60;;
42186;SDS011;27858;51.414;0.018;2023-05-07T01:41:33;1.85;;;1.42;;
42186;SDS011;27858;51.414;0.018;2023-05-07T01:44:01;1.60;;;1.45;;
42186;SDS011;27858;51.414;0.018;2023-05-07T01:46:29;1.50;;;1.40;;
42186;SDS011;27858;51.414;0.018;2023-05-07T01:48:58;1.45;;;1.02;;
42186;SDS011;27858;51.414;0.018;2023-05-07T01:51:25;1.50;;;1.40;;
42186;SDS011;27858;51.414;0.018;2023-05-07T01:53:52;1.80;;;1.40;;
42186;SDS011;27858;51.414;0.018;2023-05-07T01:56:19;3.58;;;1.25;;
42186;SDS011;27858;51.414;0.018;2023-05-07T01:58:47;1.60;;;1.23;;
42186;SDS011;27858;51.414;0.018;2023-05-07T02:01:14;1.30;;;0.98;;
42186;SDS011;27858;51.414;0.018;2023-05-07T02:03:41;2.17;;;1.30;;
42186;SDS011;27858;51.414;0.018;2023-05-07T02:06:08;2.65;;;1.55;;
42186;SDS011;27858;51.414;0.018;2023-05-07T02:08:35;1.27;;;1.08;;
42186;SDS011;27858;51.414;0.018;2023-05-07T02:11:01;1.52;;;1.42;;
42186;SDS011;27858;51.414;0.018;2023-05-07T02:13:29;2.13;;;1.40;;
42186;SDS011;27858;51.414;0.018;2023-05-07T02:15:57;3.60;;;2.40;;
42186;SDS011;27858;51.414;0.018;2023-05-07T02:18:24;2.55;;;1.50;;
42186;SDS011;27858;51.414;0.018;2023-05-07T02:20:51;2.13;;;1.63;;
42186;SDS011;27858;51.414;0.018;2023-05-07T02:23:18;1.92;;;1.70;;
42186;SDS011;27858;51.414;0.018;2023-05-07T02:25:44;2.03;;;1.52;;
42186;SDS011;27858;51.414;0.018;2023-05-07T02:28:12;3.33;;;1.95;;
42186;SDS011;27858;51.414;0.018;2023-05-07T02:30:39;4.47;;;2.28;;
42186;SDS011;27858;51.414;0.018;2023-05-07T02:33:06;3.35;;;1.90;;
42186;SDS011;27858;51.414;0.018;2023-05-07T02:35:34;1.88;;;1.70;;
42186;SDS011;27858;51.414;0.018;2023-05-07T02:38:01;3.22;;;1.88;;
42186;SDS011;27858;51.414;0.018;2023-05-07T02:40:32;3.72;;;1.98;;
42186;SDS011;27858;51.414;0.018;2023-05-07T02:42:59;2.50;;;1.90;;
42186;SDS011;27858;51.414;0.018;2023-05-07T02:45:27;2.42;;;2.22;;
42186;SDS011;27858;51.414;0.018;2023-05-07T02:47:54;2.97;;;2.20;;
42186;SDS011;27858;51.414;0.018;2023-05-07T02:50:21;2.85;;;1.98;;
42186;SDS011;27858;51.414;0.018;2023-05-07T02:52:48;3.15;;;2.40;;
42186;SDS011;27858;51.414;0.018;2023-05-07T02:55:14;2.15;;;1.73;;
42186;SDS011;27858;51.414;0.018;2023-05-07T02:57:41;1.88;;;1.63;;
42186;SDS011;27858;51.414;0.018;2023-05-07T03:00:11;2.13;;;1.58;;
42186;SDS011;27858;51.414;0.018;2023-05-07T03:02:46;3.55;;;1.55;;
42186;SDS011;27858;51.414;0.018;2023-05-07T03:05:13;5.43;;;2.83;;
42186;SDS011;27858;51.414;0.018;2023-05-07T03:07:40;3.00;;;1.35;;
42186;SDS011;27858;51.414;0.018;2023-05-07T03:10:11;3.95;;;2.00;;
42186;SDS011;27858;51.414;0.018;2023-05-07T03:12:38;3.22;;;2.13;;
42186;SDS011;27858;51.414;0.018;2023-05-07T03:15:05;3.35;;;2.80;;
42186;SDS011;27858;51.414;0.018;2023-05-07T03:17:32;2.28;;;1.88;;
42186;SDS011;27858;51.414;0.018;2023-05-07T03:19:59;2.80;;;1.95;;
42186;SDS011;27858;51.414;0.018;2023-05-07T03:22:26;2.53;;;2.08;;
42186;SDS011;27858;51.414;0.018;2023-05-07T03:24:53;2.65;;;2.42;;
42186;SDS011;27858;51.414;0.018;2023-05-07T03:27:20;3.28;;;2.15;;
42186;SDS011;27858;51.414;0.018;2023-05-07T03:29:46;3.72;;;3.03;;
42186;SDS011;27858;51.414;0.018;2023-05-07T03:32:13;3.33;;;2.28;;
42186;SDS011;27858;51.414;0.018;2023-05-07T03:34:40;5.10;;;2.38;;
42186;SDS011;27858;51.414;0.018;2023-05-07T03:37:07;2.92;;;2.03;;
42186;SDS011;27858;51.414;0.018;2023-05-07T03:39:34;5.05;;;2.60;;
42186;SDS011;27858;51.414;0.018;2023-05-07T03:42:01;3.05;;;2.22;;
42186;SDS011;27858;51.414;0.018;2023-05-07T03:44:28;5.90;;;2.83;;
42186;SDS011;27858;51.414;0.018;2023-05-07T03:46:55;3.97;;;2.40;;
42186;SDS011;27858;51.414;0.018;2023-05-07T03:49:21;4.75;;;1.90;;
42186;SDS011;27858;51.414;0.018;2023-05-07T03:51:48;6.28;;;1.95;;
42186;SDS011;27858;51.414;0.018;2023-05-07T03:54:15;3.10;;;2.33;;
42186;SDS011;27858;51.414;0.018;2023-05-07T03:56:42;3.50;;;2.63;;
42186;SDS011;27858;51.414;0.018;2023-05-07T03:59:08;2.70;;;2.33;;
42186;SDS011;27858;51.414;0.018;2023-05-07T04:01:35;5.78;;;3.30;;
42186;SDS011;27858;51.414;0.018;2023-05-07T04:04:02;5.47;;;2.97;;
42186;SDS011;27858;51.414;0.018;2023-05-07T04:06:30;4.43;;;2.88;;
42186;SDS011;27858;51.414;0.018;2023-05-07T04:08:57;4.97;;;2.80;;
42186;SDS011;27858;51.414;0.018;2023-05-07T04:11:24;5.28;;;2.92;;
42186;SDS011;27858;51.414;0.018;2023-05-07T04:13:51;3.97;;;2.75;;
42186;SDS011;27858;51.414;0.018;2023-05-07T04:16:18;3.33;;;3.03;;
42186;SDS011;27858;51.414;0.018;2023-05-07T04:18:45;3.88;;;2.50;;
42186;SDS011;27858;51.414;0.018;2023-05-07T04:21:18;5.15;;;2.42;;
42186;SDS011;27858;51.414;0.018;2023-05-07T04:23:46;5.55;;;3.22;;
42186;SDS011;27858;51.414;0.018;2023-05-07T04:26:13;4.35;;;2.92;;
42186;SDS011;27858;51.414;0.018;2023-05-07T04:28:40;3.00;;;2.20;;
42186;SDS011;27858;51.414;0.018;2023-05-07T04:31:08;2.95;;;2.33;;
42186;SDS011;27858;51.414;0.018;2023-05-07T04:33:34;2.38;;;2.13;;
42186;SDS011;27858;51.414;0.018;2023-05-07T04:36:01;3.15;;;2.70;;
42186;SDS011;27858;51.414;0.018;2023-05-07T04:38:30;3.45;;;3.08;;
42186;SDS011;27858;51.414;0.018;2023-05-07T04:41:03;3.95;;;2.15;;
42186;SDS011;27858;51.414;0.018;2023-05-07T04:43:31;4.30;;;2.97;;
42186;SDS011;27858;51.414;0.018;2023-05-07T04:45:58;3.15;;;2.33;;
42186;SDS011;27858;51.414;0.018;2023-05-07T04:48:25;3.63;;;2.28;;
42186;SDS011;27858;51.414;0.018;2023-05-07T04:50:52;3.47;;;1.85;;
42186;SDS011;27858;51.414;0.018;2023-05-07T04:53:19;3.95;;;2.35;;
42186;SDS011;27858;51.414;0.018;2023-05-07T04:55:46;3.70;;;2.92;;
42186;SDS011;27858;51.414;0.018;2023-05-07T04:58:13;3.00;;;2.38;;
42186;SDS011;27858;51.414;0.018;2023-05-07T05:00:39;3.97;;;2.85;;
42186;SDS011;27858;51.414;0.018;2023-05-07T05:03:06;3.92;;;2.85;;
42186;SDS011;27858;51.414;0.018;2023-05-07T05:05:33;3.42;;;2.35;;
42186;SDS011;27858;51.414;0.018;2023-05-07T05:08:00;6.00;;;2.90;;
42186;SDS011;27858;51.414;0.018;2023-05-07T05:10:27;5.03;;;3.70;;
42186;SDS011;27858;51.414;0.018;2023-05-07T05:12:56;3.70;;;3.20;;
42186;SDS011;27858;51.414;0.018;2023-05-07T05:15:23;5.78;;;3.80;;
42186;SDS011;27858;51.414;0.018;2023-05-07T05:17:49;3.85;;;2.95;;
42186;SDS011;27858;51.414;0.018;2023-05-07T05:20:16;6.28;;;3.90;;
42186;SDS011;27858;51.414;0.018;2023-05-07T05:22:43;6.10;;;3.78;;
42186;SDS011;27858;51.414;0.018;2023-05-07T05:25:10;4.70;;;3.72;;
42186;SDS011;27858;51.414;0.018;2023-05-07T05:27:37;5.20;;;3.13;;
42186;SDS011;27858;51.414;0.018;2023-05-07T05:30:04;5.95;;;3.67;;
42186;SDS011;27858;51.414;0.018;2023-05-07T05:32:31;4.97;;;3.50;;
42186;SDS011;27858;51.414;0.018;2023-05-07T05:35:00;5.93;;;3.75;;
42186;SDS011;27858;51.414;0.018;2023-05-07T05:37:26;5.53;;;4.07;;
42186;SDS011;27858;51.414;0.018;2023-05-07T05:39:53;4.85;;;3.38;;
42186;SDS011;27858;51.414;0.018;2023-05-07T05:42:21;4.88;;;3.22;;
42186;SDS011;27858;51.414;0.018;2023-05-07T05:44:47;5.35;;;3.85;;
42186;SDS011;27858;51.414;0.018;2023-05-07T05:47:14;7.45;;;3.15;;
42186;SDS011;27858;51.414;0.018;2023-05-07T05:49:41;5.53;;;3.03;;
42186;SDS011;27858;51.414;0.018;2023-05-07T05:52:12;7.68;;;2.90;;
42186;SDS011;27858;51.414;0.018;2023-05-07T05:54:40;5.03;;;3.05;;
42186;SDS011;27858;51.414;0.018;2023-05-07T05:57:07;3.90;;;3.25;;
42186;SDS011;27858;51.414;0.018;2023-05-07T05:59:34;7.90;;;3.97;;
42186;SDS011;27858;51.414;0.018;2023-05-07T06:02:00;5.72;;;2.78;;
42186;SDS011;27858;51.414;0.018;2023-05-07T06:04:27;6.05;;;3.08;;
42186;SDS011;27858;51.414;0.018;2023-05-07T06:06:54;5.72;;;4.32;;
42186;SDS011;27858;51.414;0.018;2023-05-07T06:09:22;3.72;;;2.42;;
42186;SDS011;27858;51.414;0.018;2023-05-07T06:11:49;5.68;;;2.97;;
42186;SDS011;27858;51.414;0.018;2023-05-07T06:14:16;4.93;;;3.83;;
42186;SDS011;27858;51.414;0.018;2023-05-07T06:16:43;3.50;;;2.50;;
42186;SDS011;27858;51.414;0.018;2023-05-07T06:19:10;6.82;;;3.60;;
42186;SDS011;27858;51.414;0.018;2023-05-07T06:21:38;3.63;;;3.20;;
42186;SDS011;27858;51.414;0.018;2023-05-07T06:24:05;6.30;;;3.13;;
42186;SDS011;27858;51.414;0.018;2023-05-07T06:26:32;4.57;;;2.72;;
42186;SDS011;27858;51.414;0.018;2023-05-07T06:28:59;4.60;;;2.45;;
42186;SDS011;27858;51.414;0.018;2023-05-07T06:31:28;4.22;;;2.75;;
42186;SDS011;27858;51.414;0.018;2023-05-07T06:33:57;7.93;;;2.60;;
42186;SDS011;27858;51.414;0.018;2023-05-07T06:36:25;4.70;;;2.95;;
42186;SDS011;27858;51.414;0.018;2023-05-07T06:38:52;5.60;;;2.92;;
42186;SDS011;27858;51.414;0.018;2023-05-07T06:41:19;4.63;;;3.58;;
42186;SDS011;27858;51.414;0.018;2023-05-07T06:43:46;3.33;;;2.13;;
42186;SDS011;27858;51.414;0.018;2023-05-07T06:46:13;5.20;;;2.70;;
42186;SDS011;27858;51.414;0.018;2023-05-07T06:48:40;3.25;;;2.92;;
42186;SDS011;27858;51.414;0.018;2023-05-07T06:51:07;3.33;;;2.70;;
42186;SDS011;27858;51.414;0.018;2023-05-07T06:53:34;4.45;;;2.67;;
42186;SDS011;27858;51.414;0.018;2023-05-07T06:56:01;8.38;;;2.90;;
42186;SDS011;27858;51.414;0.018;2023-05-07T06:58:28;2.55;;;2.28;;
42186;SDS011;27858;51.414;0.018;2023-05-07T07:00:55;4.93;;;3.15;;
42186;SDS011;27858;51.414;0.018;2023-05-07T07:03:22;3.42;;;2.67;;
42186;SDS011;27858;51.414;0.018;2023-05-07T07:05:52;4.97;;;3.10;;
42186;SDS011;27858;51.414;0.018;2023-05-07T07:08:19;3.38;;;2.30;;
42186;SDS011;27858;51.414;0.018;2023-05-07T07:10:47;6.05;;;3.00;;
42186;SDS011;27858;51.414;0.018;2023-05-07T07:13:14;4.55;;;3.10;;
42186;SDS011;27858;51.414;0.018;2023-05-07T07:15:41;5.25;;;3.05;;
42186;SDS011;27858;51.414;0.018;2023-05-07T07:18:08;5.03;;;2.75;;
42186;SDS011;27858;51.414;0.018;2023-05-07T07:20:35;4.95;;;3.28;;
42186;SDS011;27858;51.414;0.018;2023-05-07T07:23:02;4.97;;;2.60;;
42186;SDS011;27858;51.414;0.018;2023-05-07T07:25:29;14.05;;;3.00;;
42186;SDS011;27858;51.414;0.018;2023-05-07T07:27:56;4.07;;;2.92;;
42186;SDS011;27858;51.414;0.018;2023-05-07T07:30:22;9.02;;;3.28;;
42186;SDS011;27858;51.414;0.018;2023-05-07T07:32:49;3.25;;;2.95;;
42186;SDS011;27858;51.414;0.018;2023-05-07T07:35:17;2.85;;;2.17;;
42186;SDS011;27858;51.414;0.018;2023-05-07T07:37:44;4.38;;;3.55;;
42186;SDS011;27858;51.414;0.018;2023-05-07T07:40:11;5.25;;;3.75;;
42186;SDS011;27858;51.414;0.018;2023-05-07T07:42:38;6.47;;;3.28;;
42186;SDS011;27858;51.414;0.018;2023-05-07T07:45:06;3.85;;;2.85;;
42186;SDS011;27858;51.414;0.018;2023-05-07T07:47:33;3.97;;;3.03;;
42186;SDS011;27858;51.414;0.018;2023-05-07T07:50:00;5.13;;;3.55;;
42186;SDS011;27858;51.414;0.018;2023-05-07T07:52:26;7.28;;;3.13;;
42186;SDS011;27858;51.414;0.018;2023-05-07T07:54:53;5.05;;;4.13;;
42186;SDS011;27858;51.414;0.018;2023-05-07T07:57:20;6.70;;;3.25;;
42186;SDS011;27858;51.414;0.018;2023-05-07T07:59:46;6.25;;;3.60;;
42186;SDS011;27858;51.414;0.018;2023-05-07T08:02:13;4.40;;;3.67;;
42186;SDS011;27858;51.414;0.018;2023-05-07T08:04:40;7.63;;;3.13;;
42186;SDS011;27858;51.414;0.018;2023-05-07T08:07:08;6.63;;;3.65;;
42186;SDS011;27858;51.414;0.018;2023-05-07T08:09:35;4.78;;;2.95;;
42186;SDS011;27858;51.414;0.018;2023-05-07T08:12:02;5.45;;;3.80;;
42186;SDS011;27858;51.414;0.018;2023-05-07T08:14:30;6.22;;;3.30;;
42186;SDS011;27858;51.414;0.018;2023-05-07T08:16:57;6.13;;;4.13;;
42186;SDS011;27858;51.414;0.018;2023-05-07T08:19:23;6.10;;;4.30;;
42186;SDS011;27858;51.414;0.018;2023-05-07T08:21:50;5.88;;;4.05;;
42186;SDS011;27858;51.414;0.018;2023-05-07T08:24:17;3.97;;;3.50;;
42186;SDS011;27858;51.414;0.018;2023-05-07T08:26:44;10.63;;;4.25;;
42186;SDS011;27858;51.414;0.018;2023-05-07T08:29:13;8.45;;;4.20;;
42186;SDS011;27858;51.414;0.018;2023-05-07T08:31:39;6.15;;;3.83;;
42186;SDS011;27858;51.414;0.018;2023-05-07T08:34:06;5.80;;;4.03;;
42186;SDS011;27858;51.414;0.018;2023-05-07T08:36:35;5.25;;;3.95;;
42186;SDS011;27858;51.414;0.018;2023-05-07T08:39:02;5.00;;;3.67;;
42186;SDS011;27858;51.414;0.018;2023-05-07T08:41:29;5.43;;;4.38;;
42186;SDS011;27858;51.414;0.018;2023-05-07T08:43:57;4.85;;;3.63;;
42186;SDS011;27858;51.414;0.018;2023-05-07T08:46:37;12.30;;;3.50;;
42186;SDS011;27858;51.414;0.018;2023-05-07T08:49:05;3.83;;;2.88;;
42186;SDS011;27858;51.414;0.018;2023-05-07T08:51:32;4.95;;;3.10;;
42186;SDS011;27858;51.414;0.018;2023-05-07T08:53:59;4.88;;;3.78;;
42186;SDS011;27858;51.414;0.018;2023-05-07T08:56:27;4.13;;;2.90;;
42186;SDS011;27858;51.414;0.018;2023-05-07T08:58:54;5.32;;;3.05;;
42186;SDS011;27858;51.414;0.018;2023-05-07T09:01:24;2.80;;;2.22;;
42186;SDS011;27858;51.414;0.018;2023-05-07T09:03:52;4.10;;;3.40;;
42186;SDS011;27858;51.414;0.018;2023-05-07T09:06:19;5.05;;;2.63;;
42186;SDS011;27858;51.414;0.018;2023-05-07T09:08:50;2.80;;;2.50;;
42186;SDS011;27858;51.414;0.018;2023-05-07T09:11:21;4.22;;;2.97;;
42186;SDS011;27858;51.414;0.018;2023-05-07T09:13:53;2.53;;;2.33;;
42186;SDS011;27858;51.414;0.018;2023-05-07T09:18:50;2.35;;;1.90;;
42186;SDS011;27858;51.414;0.018;2023-05-07T09:21:19;2.60;;;2.28;;
42186;SDS011;27858;51.414;0.018;2023-05-07T09:23:50;3.22;;;2.13;;
42186;SDS011;27858;51.414;0.018;2023-05-07T09:26:20;2.58;;;1.65;;
42186;SDS011;27858;51.414;0.018;2023-05-07T09:28:48;2.75;;;1.90;;
42186;SDS011;27858;51.414;0.018;2023-05-07T09:31:15;3.85;;;2.70;;
42186;SDS011;27858;51.414;0.018;2023-05-07T09:33:46;2.28;;;2.08;;
42186;SDS011;27858;51.414;0.018;2023-05-07T09:36:13;3.33;;;2.15;;
42186;SDS011;27858;51.414;0.018;2023-05-07T09:38:40;4.88;;;2.47;;
42186;SDS011;27858;51.414;0.018;2023-05-07T09:41:11;3.75;;;2.10;;
42186;SDS011;27858;51.414;0.018;2023-05-07T09:43:39;3.08;;;2.47;;
42186;SDS011;27858;51.414;0.018;2023-05-07T09:46:13;3.88;;;1.92;;
42186;SDS011;27858;51.414;0.018;2023-05-07T09:48:41;5.13;;;2.53;;
42186;SDS011;27858;51.414;0.018;2023-05-07T09:51:24;3.83;;;2.15;;
42186;SDS011;27858;51.414;0.018;2023-05-07T09:53:56;2.60;;;2.03;;
42186;SDS011;27858;51.414;0.018;2023-05-07T09:56:24;2.70;;;2.42;;
42186;SDS011;27858;51.414;0.018;2023-05-07T09:58:51;2.92;;;2.17;;
42186;SDS011;27858;51.414;0.018;2023-05-07T10:01:22;6.10;;;2.88;;
42186;SDS011;27858;51.414;0.018;2023-05-07T10:03:51;2.63;;;2.17;;
42186;SDS011;27858;51.414;0.018;2023-05-07T10:06:19;2.58;;;2.33;;
42186;SDS011;27858;51.414;0.018;2023-05-07T10:08:46;2.97;;;1.90;;
42186;SDS011;27858;51.414;0.018;2023-05-07T10:11:15;4.43;;;2.67;;
42186;SDS011;27858;51.414;0.018;2023-05-07T10:13:43;5.25;;;2.80;;
42186;SDS011;27858;51.414;0.018;2023-05-07T10:16:10;5.38;;;3.08;;
42186;SDS011;27858;51.414;0.018;2023-05-07T10:18:37;4.93;;;2.65;;
42186;SDS011;27858;51.414;0.018;2023-05-07T10:21:12;3.25;;;2.58;;
42186;SDS011;27858;51.414;0.018;2023-05-07T10:23:55;5.10;;;2.63;;
42186;SDS011;27858;51.414;0.018;2023-05-07T10:26:32;3.85;;;2.70;;
42186;SDS011;27858;51.414;0.018;2023-05-07T10:29:18;4.28;;;3.13;;
42186;SDS011;27858;51.414;0.018;2023-05-07T10:32:29;4.05;;;2.38;;
42186;SDS011;27858;51.414;0.018;2023-05-07T10:37:45;2.15;;;1.90;;
42186;SDS011;27858;51.414;0.018;2023-05-07T10:40:12;2.75;;;2.47;;
42186;SDS011;27858;51.414;0.018;2023-05-07T10:42:52;4.93;;;2.25;;
42186;SDS011;27858;51.414;0.018;2023-05-07T10:45:24;3.05;;;2.75;;
42186;SDS011;27858;51.414;0.018;2023-05-07T10:51:17;2.83;;;2.05;;
42186;SDS011;27858;51.414;0.018;2023-05-07T10:53:48;2.70;;;2.20;;
42186;SDS011;27858;51.414;0.018;2023-05-07T10:56:35;2.45;;;2.22;;
42186;SDS011;27858;51.414;0.018;2023-05-07T11:01:57;1.67;;;1.58;;
42186;SDS011;27858;51.414;0.018;2023-05-07T11:04:32;3.08;;;2.70;;
42186;SDS011;27858;51.414;0.018;2023-05-07T11:15:11;3.00;;;2.53;;
42186;SDS011;27858;51.414;0.018;2023-05-07T11:17:52;4.50;;;3.38;;
42186;SDS011;27858;51.414;0.018;2023-05-07T11:26:05;3.97;;;2.53;;
42186;SDS011;27858;51.414;0.018;2023-05-07T11:28:36;2.17;;;1.88;;
42186;SDS011;27858;51.414;0.018;2023-05-07T11:31:04;2.05;;;1.55;;
42186;SDS011;27858;51.414;0.018;2023-05-07T11:33:31;2.47;;;2.17;;
42186;SDS011;27858;51.414;0.018;2023-05-07T11:35:59;1.98;;;1.88;;
42186;SDS011;27858;51.414;0.018;2023-05-07T11:38:29;3.58;;;1.75;;
42186;SDS011;27858;51.414;0.018;2023-05-07T11:40:57;3.45;;;1.90;;
42186;SDS011;27858;51.414;0.018;2023-05-07T11:43:31;2.35;;;1.90;;
42186;SDS011;27858;51.414;0.018;2023-05-07T11:46:11;2.97;;;2.28;;
42186;SDS011;27858;51.414;0.018;2023-05-07T11:48:40;2.17;;;1.97;;
42186;SDS011;27858;51.414;0.018;2023-05-07T11:51:07;1.85;;;1.70;;
42186;SDS011;27858;51.414;0.018;2023-05-07T11:53:36;2.55;;;2.35;;
42186;SDS011;27858;51.414;0.018;2023-05-07T11:56:08;4.50;;;2.95;;
42186;SDS011;27858;51.414;0.018;2023-05-07T11:58:35;3.47;;;2.85;;
42186;SDS011;27858;51.414;0.018;2023-05-07T12:01:03;4.82;;;2.63;;
42186;SDS011;27858;51.414;0.018;2023-05-07T12:03:30;4.40;;;2.80;;
42186;SDS011;27858;51.414;0.018;2023-05-07T12:06:01;2.97;;;2.17;;
42186;SDS011;27858;51.414;0.018;2023-05-07T12:08:28;2.58;;;2.38;;
42186;SDS011;27858;51.414;0.018;2023-05-07T12:10:54;2.25;;;2.05;;
42186;SDS011;27858;51.414;0.018;2023-05-07T12:13:22;3.25;;;2.70;;
42186;SDS011;27858;51.414;0.018;2023-05-07T12:15:51;3.10;;;2.78;;
42186;SDS011;27858;51.414;0.018;2023-05-07T12:18:19;2.58;;;2.38;;
42186;SDS011;27858;51.414;0.018;2023-05-07T12:20:47;2.55;;;2.35;;
42186;SDS011;27858;51.414;0.018;2023-05-07T12:23:14;4.78;;;2.42;;
42186;SDS011;27858;51.414;0.018;2023-05-07T12:25:42;3.97;;;2.58;;
42186;SDS011;27858;51.414;0.018;2023-05-07T12:28:13;2.30;;;2.10;;
42186;SDS011;27858;51.414;0.018;2023-05-07T12:30:44;4.40;;;3.15;;
42186;SDS011;27858;51.414;0.018;2023-05-07T12:33:16;5.18;;;2.78;;
42186;SDS011;27858;51.414;0.018;2023-05-07T12:35:43;2.33;;;2.10;;
42186;SDS011;27858;51.414;0.018;2023-05-07T12:38:13;3.25;;;2.72;;
42186;SDS011;27858;51.414;0.018;2023-05-07T12:40:45;2.53;;;2.33;;
42186;SDS011;27858;51.414;0.018;2023-05-07T12:43:20;3.83;;;2.65;;
42186;SDS011;27858;51.414;0.018;2023-05-07T12:45:50;3.22;;;2.92;;
42186;SDS011;27858;51.414;0.018;2023-05-07T12:48:19;3.70;;;3.38;;
42186;SDS011;27858;51.414;0.018;2023-05-07T12:50:50;4.78;;;2.95;;
42186;SDS011;27858;51.414;0.018;2023-05-07T12:53:19;2.45;;;2.25;;
42186;SDS011;27858;51.414;0.018;2023-05-07T12:55:48;3.42;;;2.78;;
42186;SDS011;27858;51.414;0.018;2023-05-07T12:58:20;4.22;;;3.35;;
42186;SDS011;27858;51.414;0.018;2023-05-07T13:00:51;4.47;;;2.83;;
42186;SDS011;27858;51.414;0.018;2023-05-07T13:03:22;2.42;;;2.22;;
42186;SDS011;27858;51.414;0.018;2023-05-07T13:05:51;2.75;;;2.28;;
42186;SDS011;27858;51.414;0.018;2023-05-07T13:08:26;3.28;;;2.83;;
42186;SDS011;27858;51.414;0.018;2023-05-07T13:11:06;3.85;;;2.28;;
42186;SDS011;27858;51.414;0.018;2023-05-07T13:13:35;3.63;;;2.40;;
42186;SDS011;27858;51.414;0.018;2023-05-07T13:16:04;2.28;;;2.13;;
42186;SDS011;27858;51.414;0.018;2023-05-07T13:18:32;1.88;;;1.77;;
42186;SDS011;27858;51.414;0.018;2023-05-07T13:21:00;2.55;;;2.35;;
42186;SDS011;27858;51.414;0.018;2023-05-07T13:23:27;2.95;;;2.70;;
42186;SDS011;27858;51.414;0.018;2023-05-07T13:25:54;4.07;;;2.88;;
42186;SDS011;27858;51.414;0.018;2023-05-07T13:28:23;3.28;;;2.72;;
42186;SDS011;27858;51.414;0.018;2023-05-07T13:30:50;3.63;;;2.72;;
42186;SDS011;27858;51.414;0.018;2023-05-07T13:33:21;9.52;;;7.45;;
42186;SDS011;27858;51.414;0.018;2023-05-07T13:35:47;3.63;;;2.75;;
42186;SDS011;27858;51.414;0.018;2023-05-07T13:38:14;2.97;;;2.53;;
42186;SDS011;27858;51.414;0.018;2023-05-07T13:40:42;4.07;;;2.53;;
42186;SDS011;27858;51.414;0.018;2023-05-07T13:43:09;2.85;;;2.55;;
42186;SDS011;27858;51.414;0.018;2023-05-07T13:45:36;3.50;;;2.10;;
42186;SDS011;27858;51.414;0.018;2023-05-07T13:48:03;6.18;;;2.45;;
42186;SDS011;27858;51.414;0.018;2023-05-07T13:50:30;2.40;;;1.90;;
42186;SDS011;27858;51.414;0.018;2023-05-07T13:52:57;2.63;;;2.00;;
42186;SDS011;27858;51.414;0.018;2023-05-07T13:55:24;4.63;;;2.42;;
42186;SDS011;27858;51.414;0.018;2023-05-07T13:57:56;3.70;;;2.17;;
42186;SDS011;27858;51.414;0.018;2023-05-07T14:00:27;2.15;;;1.95;;
42186;SDS011;27858;51.414;0.018;2023-05-07T14:02:55;2.72;;;2.47;;
42186;SDS011;27858;51.414;0.018;2023-05-07T14:05:22;2.65;;;2.30;;
42186;SDS011;27858;51.414;0.018;2023-05-07T14:07:50;4.07;;;2.30;;
42186;SDS011;27858;51.414;0.018;2023-05-07T14:10:18;2.47;;;1.77;;
42186;SDS011;27858;51.414;0.018;2023-05-07T14:12:46;5.43;;;2.35;;
42186;SDS011;27858;51.414;0.018;2023-05-07T14:15:13;2.15;;;1.83;;
42186;SDS011;27858;51.414;0.018;2023-05-07T14:17:40;2.30;;;1.85;;
42186;SDS011;27858;51.414;0.018;2023-05-07T14:20:07;2.38;;;1.73;;
42186;SDS011;27858;51.414;0.018;2023-05-07T14:22:35;2.30;;;1.90;;
42186;SDS011;27858;51.414;0.018;2023-05-07T14:25:01;1.83;;;1.73;;
42186;SDS011;27858;51.414;0.018;2023-05-07T14:27:32;2.80;;;1.35;;
42186;SDS011;27858;51.414;0.018;2023-05-07T14:29:59;1.63;;;1.52;;
42186;SDS011;27858;51.414;0.018;2023-05-07T14:32:26;3.60;;;1.58;;
42186;SDS011;27858;51.414;0.018;2023-05-07T14:34:53;3.75;;;1.15;;
42186;SDS011;27858;51.414;0.018;2023-05-07T14:37:19;2.85;;;1.30;;
42186;SDS011;27858;51.414;0.018;2023-05-07T14:39:46;2.22;;;1.67;;
42186;SDS011;27858;51.414;0.018;2023-05-07T14:42:16;2.42;;;1.55;;
42186;SDS011;27858;51.414;0.018;2023-05-07T14:44:43;3.38;;;1.73;;
42186;SDS011;27858;51.414;0.018;2023-05-07T14:47:11;2.63;;;1.65;;
42186;SDS011;27858;51.414;0.018;2023-05-07T14:49:38;1.88;;;1.67;;
42186;SDS011;27858;51.414;0.018;2023-05-07T14:52:06;2.25;;;2.10;;
42186;SDS011;27858;51.414;0.018;2023-05-07T14:54:36;2.45;;;1.75;;
42186;SDS011;27858;51.414;0.018;2023-05-07T14:57:04;2.35;;;1.60;;
42186;SDS011;27858;51.414;0.018;2023-05-07T14:59:31;2.42;;;1.55;;
42186;SDS011;27858;51.414;0.018;2023-05-07T15:01:58;2.50;;;1.70;;
42186;SDS011;27858;51.414;0.018;2023-05-07T15:04:25;2.50;;;1.88;;
42186;SDS011;27858;51.414;0.018;2023-05-07T15:06:52;1.52;;;1.42;;
42186;SDS011;27858;51.414;0.018;2023-05-07T15:09:22;1.80;;;1.63;;
42186;SDS011;27858;51.414;0.018;2023-05-07T15:11:49;2.72;;;1.63;;
42186;SDS011;27858;51.414;0.018;2023-05-07T15:14:15;4.78;;;2.22;;
42186;SDS011;27858;51.414;0.018;2023-05-07T15:16:42;2.10;;;1.45;;
42186;SDS011;27858;51.414;0.018;2023-05-07T15:19:09;2.00;;;1.80;;